createdAt,value
2022-11-05T00:01:58.504Z,6.38
2022-11-05T00:04:43.562Z,6.38
2022-11-05T00:07:35.092Z,6.34
2022-11-05T00:10:09.465Z,6.31
2022-11-05T00:12:55.353Z,6.30
2022-11-05T00:15:40.544Z,6.28
2022-11-05T00:18:07.168Z,6.18
2022-11-05T00:20:33.941Z,6.23
2022-11-05T00:23:21.160Z,6.26
2022-11-05T00:26:14.239Z,6.24
2022-11-05T00:28:43.800Z,6.22
2022-11-05T00:31:14.289Z,6.18
2022-11-05T00:33:42.777Z,6.17
2022-11-05T00:36:11.009Z,6.20
2022-11-05T00:38:37.998Z,6.21
2022-11-05T00:41:04.801Z,6.12
2022-11-05T00:43:50.097Z,6.06
2022-11-05T00:46:16.723Z,5.97
2022-11-05T00:49:01.678Z,5.94
2022-11-05T00:51:28.486Z,5.94
2022-11-05T00:53:55.078Z,6.05
2022-11-05T00:56:21.684Z,6.06
2022-11-05T00:58:48.962Z,6.00
2022-11-05T01:01:15.968Z,6.06
2022-11-05T01:03:45.137Z,6.09
2022-11-05T01:06:21.625Z,6.03
2022-11-05T01:08:48.262Z,5.94
2022-11-05T01:11:33.423Z,5.92
2022-11-05T01:14:05.653Z,5.92
2022-11-05T01:16:32.733Z,5.94
2022-11-05T01:18:59.484Z,6.01
2022-11-05T01:21:26.329Z,5.98
2022-11-05T01:23:53.795Z,6.03
2022-11-05T01:26:20.360Z,6.01
2022-11-05T01:28:54.816Z,5.90
2022-11-05T01:31:22.306Z,5.88
2022-11-05T01:33:49.838Z,5.90
2022-11-05T01:36:17.431Z,5.95
2022-11-05T01:38:44.400Z,5.96
2022-11-05T01:41:11.247Z,5.96
2022-11-05T01:43:56.570Z,5.85
2022-11-05T01:46:29.334Z,5.91
2022-11-05T01:49:03.158Z,5.87
2022-11-05T01:51:30.913Z,5.95
2022-11-05T01:54:01.706Z,5.90
2022-11-05T01:56:39.645Z,5.92
2022-11-05T01:59:38.716Z,5.88
2022-11-05T02:02:07.915Z,5.88
2022-11-05T02:04:43.018Z,5.82
2022-11-05T02:07:11.439Z,5.86
2022-11-05T02:09:52.143Z,5.79
2022-11-05T02:12:19.747Z,5.75
2022-11-05T02:14:46.407Z,5.76
2022-11-05T02:17:54.166Z,5.75
2022-11-05T02:20:51.825Z,5.66
2022-11-05T02:23:36.934Z,5.63
2022-11-05T02:26:22.400Z,5.66
2022-11-05T02:29:10.707Z,5.65
2022-11-05T02:31:49.331Z,5.62
2022-11-05T02:34:27.879Z,5.69
2022-11-05T02:37:00.474Z,5.63
2022-11-05T02:39:52.889Z,5.52
2022-11-05T02:42:42.473Z,5.51
2022-11-05T02:45:15.118Z,5.55
2022-11-05T02:47:45.457Z,5.59
2022-11-05T02:50:27.071Z,5.59
2022-11-05T02:53:02.262Z,5.56
2022-11-05T02:55:37.089Z,5.58
2022-11-05T02:58:07.463Z,5.61
2022-11-05T03:00:49.450Z,5.59
2022-11-05T03:03:18.718Z,5.59
2022-11-05T03:06:23.731Z,5.61
2022-11-05T03:09:01.594Z,5.57
2022-11-05T03:11:31.641Z,5.54
2022-11-05T03:14:10.382Z,5.62
2022-11-05T03:16:44.063Z,5.59
2022-11-05T03:19:25.867Z,5.52
2022-11-05T03:22:05.703Z,5.50
2022-11-05T03:24:39.211Z,5.55
2022-11-05T03:27:27.390Z,5.54
2022-11-05T03:30:01.181Z,5.54
2022-11-05T03:32:30.806Z,5.56
2022-11-05T03:35:02.318Z,5.48
2022-11-05T03:37:35.317Z,5.39
2022-11-05T03:40:06.290Z,5.41
2022-11-05T03:42:36.514Z,5.46
2022-11-05T03:45:14.304Z,5.46
2022-11-05T03:47:44.332Z,5.42
2022-11-05T03:50:23.194Z,5.44
2022-11-05T03:52:55.270Z,5.49
2022-11-05T03:55:33.047Z,5.51
2022-11-05T03:57:59.830Z,5.58
2022-11-05T04:00:26.478Z,5.57
2022-11-05T04:02:53.292Z,5.55
2022-11-05T04:05:19.932Z,5.57
2022-11-05T04:08:08.713Z,5.59
2022-11-05T04:10:56.241Z,5.66
2022-11-05T04:13:25.529Z,5.72
2022-11-05T04:16:15.167Z,5.68
2022-11-05T04:18:42.533Z,5.74
2022-11-05T04:21:29.539Z,5.85
2022-11-05T04:24:08.641Z,5.85
2022-11-05T04:26:44.631Z,5.84
2022-11-05T04:29:29.818Z,5.89
2022-11-05T04:31:57.181Z,5.90
2022-11-05T04:34:24.228Z,5.93
2022-11-05T04:36:53.249Z,5.92
2022-11-05T04:39:20.878Z,5.97
2022-11-05T04:41:48.822Z,6.02
2022-11-05T04:44:16.853Z,6.01
2022-11-05T04:46:43.811Z,6.00
2022-11-05T04:49:10.385Z,6.05
2022-11-05T04:51:37.068Z,6.05
2022-11-05T04:54:03.819Z,6.06
2022-11-05T04:56:30.427Z,6.07
2022-11-05T04:58:57.048Z,6.03
2022-11-05T05:01:25.460Z,6.05
2022-11-05T05:03:54.053Z,6.08
2022-11-05T05:06:21.733Z,6.13
2022-11-05T05:08:50.051Z,6.15
2022-11-05T05:11:19.029Z,6.16
2022-11-05T05:13:45.745Z,6.17
2022-11-05T05:16:25.706Z,6.17
2022-11-05T05:18:53.217Z,6.18
2022-11-05T05:21:41.089Z,6.21
2022-11-05T05:24:11.365Z,6.29
2022-11-05T05:26:39.556Z,6.33
2022-11-05T05:29:06.915Z,6.30
2022-11-05T05:31:34.011Z,6.25
2022-11-05T05:34:00.671Z,6.22
2022-11-05T05:36:27.358Z,6.26
2022-11-05T05:38:53.977Z,6.21
2022-11-05T05:41:20.700Z,6.21
2022-11-05T05:43:47.694Z,6.26
2022-11-05T05:46:16.548Z,6.27
2022-11-05T05:48:43.967Z,6.30
2022-11-05T05:51:11.856Z,6.37
2022-11-05T05:53:38.824Z,6.44
2022-11-05T05:56:06.787Z,6.51
2022-11-05T05:58:36.380Z,6.52
2022-11-05T06:01:09.593Z,6.49
2022-11-05T06:03:37.730Z,6.48
2022-11-05T06:06:14.981Z,6.54
2022-11-05T06:08:45.475Z,6.58
2022-11-05T06:11:12.105Z,6.64
2022-11-05T06:13:38.770Z,6.68
2022-11-05T06:16:10.040Z,6.64
2022-11-05T06:18:37.423Z,6.69
2022-11-05T06:21:06.929Z,6.73
2022-11-05T06:23:34.886Z,6.81
2022-11-05T06:26:07.126Z,6.94
2022-11-05T06:28:34.588Z,7.01
2022-11-05T06:31:01.847Z,7.09
2022-11-05T06:33:29.274Z,7.22
2022-11-05T06:35:59.435Z,7.28
2022-11-05T06:38:26.036Z,7.31
2022-11-05T06:40:52.717Z,7.39
2022-11-05T06:43:19.340Z,7.44
2022-11-05T06:45:45.889Z,7.51
2022-11-05T06:48:12.534Z,7.65
2022-11-05T06:50:39.173Z,7.68
2022-11-05T06:53:06.231Z,7.71
2022-11-05T06:55:32.983Z,7.79
2022-11-05T06:57:59.623Z,7.87
2022-11-05T07:00:26.511Z,7.86
2022-11-05T07:02:53.223Z,7.82
2022-11-05T07:05:19.802Z,7.87
2022-11-05T07:07:46.442Z,7.96
2022-11-05T07:10:16.325Z,7.96
2022-11-05T07:12:43.666Z,8.00
2022-11-05T07:15:12.441Z,8.11
2022-11-05T07:17:40.212Z,8.12
2022-11-05T07:20:08.318Z,8.08
2022-11-05T07:22:35.621Z,8.09
2022-11-05T07:25:02.560Z,8.10
2022-11-05T07:27:29.570Z,8.18
2022-11-05T07:29:56.189Z,8.25
2022-11-05T07:32:22.878Z,8.37
2022-11-05T07:34:49.727Z,8.41
2022-11-05T07:37:28.913Z,8.47
2022-11-05T07:45:28.254Z,8.82
2022-11-05T07:48:00.738Z,9.01
2022-11-05T07:50:30.175Z,9.23
2022-11-05T07:53:04.465Z,9.24
2022-11-05T07:55:31.274Z,9.41
2022-11-05T07:57:58.596Z,9.44
2022-11-05T08:00:27.047Z,9.53
2022-11-05T08:03:07.166Z,9.57
2022-11-05T08:05:37.087Z,9.62
2022-11-05T08:08:04.386Z,9.71
2022-11-05T08:10:31.138Z,9.81
2022-11-05T08:12:57.864Z,9.86
2022-11-05T08:15:24.572Z,10.02
2022-11-05T08:17:58.661Z,10.18
2022-11-05T08:20:26.439Z,10.17
2022-11-05T08:22:53.730Z,10.24
2022-11-05T08:25:20.611Z,10.34
2022-11-05T08:27:47.344Z,10.47
2022-11-05T08:30:14.220Z,10.52
2022-11-05T08:32:40.909Z,10.51
2022-11-05T08:35:07.895Z,10.51
2022-11-05T08:37:34.538Z,10.53
2022-11-05T08:40:01.199Z,10.63
2022-11-05T08:42:27.764Z,10.65
2022-11-05T08:44:55.089Z,10.61
2022-11-05T08:47:21.835Z,10.58
2022-11-05T08:49:48.566Z,10.61
2022-11-05T08:52:15.312Z,10.66
2022-11-05T08:54:43.202Z,10.87
2022-11-05T08:57:09.853Z,10.86
2022-11-05T08:59:36.480Z,10.85
2022-11-05T09:02:03.201Z,10.96
2022-11-05T09:04:30.538Z,11.04
2022-11-05T09:06:57.180Z,11.02
2022-11-05T09:09:23.806Z,11.04
2022-11-05T09:12:11.027Z,11.04
2022-11-05T09:14:37.168Z,11.11
2022-11-05T09:17:03.818Z,11.08
2022-11-05T09:19:30.357Z,11.14
2022-11-05T09:21:59.479Z,11.11
2022-11-05T09:24:26.166Z,11.17
2022-11-05T09:26:52.832Z,11.16
2022-11-05T09:29:19.465Z,11.19
2022-11-05T09:31:46.075Z,11.24
2022-11-05T09:34:12.674Z,11.30
2022-11-05T09:36:39.407Z,11.34
2022-11-05T09:39:06.188Z,11.40
2022-11-05T09:41:37.637Z,11.45
2022-11-05T09:44:20.045Z,11.64
2022-11-05T09:46:51.253Z,11.81
2022-11-05T09:49:29.549Z,11.94
2022-11-05T09:51:58.336Z,11.97
2022-11-05T09:54:28.588Z,12.21
2022-11-05T09:56:55.862Z,12.41
2022-11-05T09:59:27.583Z,12.47
2022-11-05T10:02:13.585Z,12.48
2022-11-05T10:04:49.266Z,12.56
2022-11-05T10:07:23.207Z,12.67
2022-11-05T10:10:00.495Z,12.65
2022-11-05T10:12:53.460Z,12.86
2022-11-05T10:15:32.428Z,12.96
2022-11-05T10:18:16.947Z,13.07
2022-11-05T10:20:44.761Z,13.19
2022-11-05T10:23:17.207Z,13.21
2022-11-05T10:26:06.338Z,13.34
2022-11-05T10:28:34.457Z,13.38
2022-11-05T10:31:06.798Z,13.38
2022-11-05T10:33:45.359Z,13.48
2022-11-05T10:36:24.669Z,13.63
2022-11-05T10:38:55.854Z,13.68
2022-11-05T10:41:44.113Z,13.71
2022-11-05T10:44:28.248Z,13.84
2022-11-05T10:47:17.044Z,13.86
2022-11-05T10:50:08.761Z,13.86
2022-11-05T10:52:38.497Z,13.89
2022-11-05T10:55:21.488Z,13.92
2022-11-05T10:57:49.996Z,14.00
2022-11-05T11:00:16.729Z,13.94
2022-11-05T11:02:47.700Z,14.00
2022-11-05T11:05:25.158Z,14.16
2022-11-05T11:08:08.948Z,14.23
2022-11-05T11:10:59.006Z,14.43
2022-11-05T11:13:28.925Z,14.60
2022-11-05T11:16:14.824Z,14.72
2022-11-05T11:18:43.425Z,14.90
2022-11-05T11:21:26.289Z,15.02
2022-11-05T11:24:04.012Z,15.08
2022-11-05T11:26:40.316Z,15.11
2022-11-05T11:29:26.991Z,15.27
2022-11-05T11:31:57.355Z,15.38
2022-11-05T11:34:29.501Z,15.33
2022-11-05T11:37:03.849Z,15.36
2022-11-05T11:39:31.128Z,15.36
2022-11-05T11:42:00.441Z,15.38
2022-11-05T11:44:29.661Z,15.50
2022-11-05T11:47:02.082Z,15.59
2022-11-05T11:49:46.636Z,15.62
2022-11-05T11:52:14.590Z,15.62
2022-11-05T11:54:41.597Z,15.70
2022-11-05T11:57:21.844Z,15.93
2022-11-05T12:00:07.876Z,15.97
2022-11-05T12:02:44.399Z,16.06
2022-11-05T12:05:10.971Z,16.06
2022-11-05T12:07:58.174Z,16.08
2022-11-05T12:10:31.478Z,16.13
2022-11-05T12:13:21.137Z,16.23
2022-11-05T12:15:55.394Z,16.25
2022-11-05T12:18:21.806Z,16.18
2022-11-05T12:21:02.751Z,16.08
2022-11-05T12:23:29.257Z,16.17
2022-11-05T12:26:22.027Z,16.26
2022-11-05T12:29:19.167Z,16.26
2022-11-05T12:32:02.436Z,16.19
2022-11-05T12:34:37.224Z,16.21
2022-11-05T12:37:30.413Z,16.27
2022-11-05T12:40:09.484Z,16.31
2022-11-05T12:42:38.945Z,16.27
2022-11-05T12:45:15.841Z,16.25
2022-11-05T12:47:45.271Z,16.20
2022-11-05T12:50:15.184Z,16.16
2022-11-05T12:52:54.064Z,16.17
2022-11-05T12:55:24.316Z,16.12
2022-11-05T12:57:55.823Z,16.10
2022-11-05T13:00:24.034Z,16.04
2022-11-05T13:02:56.740Z,16.01
2022-11-05T13:05:26.092Z,15.95
2022-11-05T13:07:56.764Z,15.91
2022-11-05T13:10:40.618Z,15.97
2022-11-05T13:13:21.698Z,16.06
2022-11-05T13:15:54.832Z,15.97
2022-11-05T13:18:28.313Z,15.86
2022-11-05T13:20:56.710Z,15.85
2022-11-05T13:23:24.356Z,15.77
2022-11-05T13:25:53.601Z,15.73
2022-11-05T13:28:38.985Z,15.70
2022-11-05T13:31:10.730Z,15.59
2022-11-05T13:33:40.180Z,15.53
2022-11-05T13:36:29.182Z,15.45
2022-11-05T13:39:13.724Z,15.36
2022-11-05T13:41:58.649Z,15.33
2022-11-05T13:47:47.263Z,15.34
2022-11-05T13:50:34.316Z,15.30
2022-11-05T13:53:19.860Z,15.25
2022-11-05T13:56:18.535Z,15.20
2022-11-05T13:58:57.051Z,15.07
2022-11-05T14:01:29.403Z,15.06
2022-11-05T14:03:56.619Z,15.01
2022-11-05T14:06:31.239Z,14.96
2022-11-05T14:09:04.310Z,14.96
2022-11-05T14:11:33.365Z,14.96
2022-11-05T14:14:02.798Z,14.88
2022-11-05T14:16:43.895Z,14.80
2022-11-05T14:19:22.403Z,14.74
2022-11-05T14:21:55.985Z,14.68
2022-11-05T14:24:22.768Z,14.64
2022-11-05T14:27:04.581Z,14.60
2022-11-05T14:29:43.210Z,14.53
2022-11-05T14:32:21.818Z,14.43
2022-11-05T14:34:56.000Z,14.45
2022-11-05T14:37:24.222Z,14.34
2022-11-05T14:39:51.266Z,14.29
2022-11-05T14:42:22.546Z,14.34
2022-11-05T14:48:12.147Z,14.12
2022-11-05T14:50:45.332Z,14.04
2022-11-05T14:53:33.314Z,14.04
2022-11-05T14:56:02.717Z,13.93
2022-11-05T14:58:35.580Z,13.89
2022-11-05T15:01:09.012Z,13.85
2022-11-05T15:03:46.781Z,13.78
2022-11-05T15:06:20.743Z,13.69
2022-11-05T15:08:50.234Z,13.72
2022-11-05T15:11:36.962Z,13.70
2022-11-05T15:14:12.971Z,13.65
2022-11-05T15:16:43.587Z,13.65
2022-11-05T15:19:18.286Z,13.58
2022-11-05T15:21:47.883Z,13.50
2022-11-05T15:24:16.194Z,13.48
2022-11-05T15:27:06.322Z,13.43
2022-11-05T15:29:33.293Z,13.39
2022-11-05T15:32:03.064Z,13.34
2022-11-05T15:34:32.938Z,13.31
2022-11-05T15:37:10.330Z,13.30
2022-11-05T15:39:41.101Z,13.31
2022-11-05T15:42:28.022Z,13.35
2022-11-05T15:44:58.342Z,13.30
2022-11-05T15:47:28.736Z,13.33
2022-11-05T15:49:59.880Z,13.34
2022-11-05T15:55:25.527Z,13.29
2022-11-05T15:58:04.852Z,13.22
2022-11-05T16:00:42.882Z,13.19
2022-11-05T16:03:18.553Z,13.16
2022-11-05T16:05:47.831Z,13.11
2022-11-05T16:08:16.765Z,13.06
2022-11-05T16:10:46.445Z,13.04
2022-11-05T16:13:40.200Z,12.96
2022-11-05T16:16:21.973Z,12.89
2022-11-05T16:18:50.679Z,12.88
2022-11-05T16:21:19.000Z,12.80
2022-11-05T16:23:53.665Z,12.78
2022-11-05T16:30:01.336Z,12.66
2022-11-05T16:32:33.729Z,12.70
2022-11-05T16:35:05.335Z,12.70
2022-11-05T16:37:38.266Z,12.65
2022-11-05T16:40:19.062Z,12.63
2022-11-05T16:42:51.448Z,12.62
2022-11-05T16:45:24.457Z,12.63
2022-11-05T16:47:52.010Z,12.60
2022-11-05T16:50:31.619Z,12.55
2022-11-05T16:53:00.859Z,12.51
2022-11-05T16:55:27.566Z,12.48
2022-11-05T16:57:57.229Z,12.47
2022-11-05T17:00:25.148Z,12.39
2022-11-05T17:02:56.127Z,12.34
2022-11-05T17:05:30.488Z,12.33
2022-11-05T17:07:59.576Z,12.02
2022-11-05T17:10:27.112Z,11.99
2022-11-05T17:12:53.995Z,11.97
2022-11-05T17:15:28.319Z,12.04
2022-11-05T17:17:55.746Z,12.05
2022-11-05T17:20:35.129Z,12.06
2022-11-05T17:23:06.639Z,12.00
2022-11-05T17:25:34.329Z,12.01
2022-11-05T17:28:01.028Z,11.93
2022-11-05T17:30:27.676Z,11.90
2022-11-05T17:32:58.677Z,11.90
2022-11-05T17:35:25.318Z,11.95
2022-11-05T17:37:51.945Z,11.96
2022-11-05T17:40:22.433Z,12.00
2022-11-05T17:42:50.306Z,11.95
2022-11-05T17:45:17.782Z,11.94
2022-11-05T17:47:44.975Z,11.93
2022-11-05T17:50:15.633Z,11.87
2022-11-05T17:52:42.753Z,11.87
2022-11-05T17:55:16.722Z,11.88
2022-11-05T17:57:45.806Z,11.87
2022-11-05T18:00:14.188Z,11.90
2022-11-05T18:02:40.931Z,11.91
2022-11-05T18:05:08.203Z,11.95
2022-11-05T18:07:34.803Z,11.94
2022-11-05T18:10:01.580Z,11.82
2022-11-05T18:12:28.170Z,11.77
2022-11-05T18:14:54.809Z,11.72
2022-11-05T18:17:27.774Z,11.75
2022-11-05T18:20:02.606Z,11.67
2022-11-05T18:22:29.722Z,11.73
2022-11-05T18:24:56.427Z,11.79
2022-11-05T18:27:27.809Z,11.99
2022-11-05T18:29:54.972Z,11.94
2022-11-05T18:32:21.680Z,11.81
2022-11-05T18:34:48.451Z,11.76
2022-11-05T18:37:17.551Z,11.80
2022-11-05T18:39:51.542Z,11.79
2022-11-05T18:42:19.629Z,11.70
2022-11-05T18:44:49.469Z,11.67
2022-11-05T18:47:19.394Z,11.78
2022-11-05T18:49:46.338Z,11.78
2022-11-05T18:52:13.312Z,11.68
2022-11-05T18:54:39.950Z,11.61
2022-11-05T18:57:08.888Z,11.56
2022-11-05T18:59:38.841Z,11.56
2022-11-05T19:02:08.165Z,11.57
2022-11-05T19:04:36.682Z,11.59
2022-11-05T19:07:11.562Z,11.58
2022-11-05T19:09:39.566Z,11.63
2022-11-05T19:12:07.473Z,11.57
2022-11-05T19:14:35.419Z,11.54
2022-11-05T19:17:03.033Z,11.49
2022-11-05T19:19:29.829Z,11.45
2022-11-05T19:21:59.127Z,11.36
2022-11-05T19:24:28.419Z,11.36
2022-11-05T19:26:58.269Z,11.32
2022-11-05T19:29:25.205Z,11.31
2022-11-05T19:31:51.908Z,11.31
2022-11-05T19:34:21.988Z,11.28
2022-11-05T19:36:48.798Z,11.30
2022-11-05T19:39:15.559Z,11.25
2022-11-05T19:41:45.572Z,11.19
2022-11-05T19:44:15.612Z,11.18
2022-11-05T19:46:44.008Z,11.19
2022-11-05T19:49:14.015Z,11.11
2022-11-05T19:51:42.924Z,11.03
2022-11-05T19:54:11.808Z,11.07
2022-11-05T19:56:38.652Z,11.08
2022-11-05T19:59:07.877Z,11.11
2022-11-05T20:01:38.760Z,11.12
2022-11-05T20:04:05.936Z,11.13
2022-11-05T20:06:38.828Z,11.11
2022-11-05T20:09:27.430Z,11.10
2022-11-05T20:11:56.479Z,11.02
2022-11-05T20:14:29.781Z,10.87
2022-11-05T20:16:58.861Z,10.78
2022-11-05T20:19:25.679Z,10.66
2022-11-05T20:21:52.456Z,10.68
2022-11-05T20:24:25.085Z,10.73
2022-11-05T20:26:56.148Z,10.68
2022-11-05T20:29:30.491Z,10.77
2022-11-05T20:32:03.785Z,10.81
2022-11-05T20:34:34.668Z,10.90
2022-11-05T20:37:04.820Z,10.85
2022-11-05T20:39:34.091Z,10.87
2022-11-05T20:42:03.419Z,10.96
2022-11-05T20:44:30.319Z,10.86
2022-11-05T20:47:00.470Z,10.73
2022-11-05T20:49:30.036Z,10.79
2022-11-05T20:51:59.542Z,10.86
2022-11-05T20:54:26.537Z,10.88
2022-11-05T20:56:53.332Z,10.92
2022-11-05T20:59:47.327Z,10.91
2022-11-05T21:02:17.595Z,10.92
2022-11-05T21:04:50.630Z,10.95
2022-11-05T21:07:20.382Z,11.04
2022-11-05T21:09:49.813Z,11.05
2022-11-05T21:12:18.355Z,10.95
2022-11-05T21:14:45.291Z,10.94
2022-11-05T21:17:14.868Z,10.94
2022-11-05T21:19:44.173Z,10.97
2022-11-05T21:22:17.785Z,10.87
2022-11-05T21:24:44.458Z,10.89
2022-11-05T21:27:14.073Z,10.83
2022-11-05T21:29:42.930Z,10.75
2022-11-05T21:32:10.091Z,10.78
2022-11-05T21:34:39.337Z,10.83
2022-11-05T21:37:06.238Z,10.82
2022-11-05T21:39:35.513Z,10.83
2022-11-05T21:42:02.159Z,10.80
2022-11-05T21:44:28.762Z,10.76
2022-11-05T21:47:03.127Z,10.68
2022-11-05T21:49:37.159Z,10.71
2022-11-05T21:52:22.662Z,10.71
2022-11-05T21:55:11.056Z,10.79
2022-11-05T21:57:56.368Z,10.77
2022-11-05T22:00:24.867Z,10.65
2022-11-05T22:02:54.041Z,10.60
2022-11-05T22:05:20.770Z,10.58
2022-11-05T22:07:49.479Z,10.57
2022-11-05T22:10:19.199Z,10.51
2022-11-05T22:12:48.225Z,10.50
2022-11-05T22:15:17.978Z,10.47
2022-11-05T22:17:47.162Z,10.40
2022-11-05T22:20:14.269Z,10.38
2022-11-05T22:22:40.899Z,10.37
2022-11-05T22:25:07.859Z,10.32
2022-11-05T22:27:36.679Z,10.31
2022-11-05T22:30:08.264Z,10.27
2022-11-05T22:32:39.037Z,10.31
2022-11-05T22:35:07.713Z,10.37
2022-11-05T22:37:34.401Z,10.40
2022-11-05T22:40:01.067Z,10.44
2022-11-05T22:42:27.849Z,10.43
2022-11-05T22:44:58.937Z,10.42
2022-11-05T22:47:28.608Z,10.42
2022-11-05T22:49:58.104Z,10.48
2022-11-05T22:52:26.996Z,10.41
2022-11-05T22:54:53.607Z,10.37
2022-11-05T22:57:20.264Z,10.43
2022-11-05T22:59:47.381Z,10.37
2022-11-05T23:02:16.100Z,10.38
2022-11-05T23:04:45.384Z,10.33
2022-11-05T23:07:35.975Z,10.27
2022-11-05T23:10:21.209Z,10.28
2022-11-05T23:12:50.719Z,10.21
2022-11-05T23:15:37.740Z,10.18
2022-11-05T23:18:28.529Z,10.07
2022-11-05T23:21:13.732Z,10.02
2022-11-05T23:23:58.603Z,10.02
2022-11-05T23:26:44.800Z,9.96
2022-11-05T23:29:13.654Z,9.96
2022-11-05T23:31:58.965Z,9.95
2022-11-05T23:34:25.690Z,9.92
2022-11-05T23:37:11.184Z,9.96
2022-11-05T23:39:42.462Z,9.92
2022-11-05T23:42:31.097Z,9.94
2022-11-05T23:45:18.996Z,9.96
2022-11-05T23:48:05.622Z,9.95
2022-11-05T23:50:39.946Z,9.93
2022-11-05T23:53:09.434Z,9.86
2022-11-05T23:55:36.449Z,9.88
2022-11-05T23:58:03.220Z,9.87
